Time;durP1;ratioP1;P1;durP2;ratioP2;P2;SDS_P1;SDS_P2;PMS_P1;PMS_P2;Temp;Humidity;BMP_temperature;BMP_pressure;BME280_temperature;BME280_humidity;BME280_pressure;Samples;Min_cycle;Max_cycle;Signal;HPM_P1;HPM_P2
2022/03/04 00:00:23;;;;;;;10.35;7.60;;;;;;;11.61;25.13;101541.28;5006282;28;20053;-82
2022/03/04 00:02:50;;;;;;;11.63;8.07;;;;;;;11.58;25.35;101536.03;5004863;28;20073;-82
2022/03/04 00:05:17;;;;;;;12.15;7.88;;;;;;;11.53;25.04;101542.75;4999296;28;20046;-82
2022/03/04 00:07:43;;;;;;;11.85;8.02;;;;;;;11.54;25.26;101539.03;5003492;28;20050;-82
2022/03/04 00:10:10;;;;;;;10.13;7.22;;;;;;;11.50;25.20;101548.34;4978346;28;20618;-82
2022/03/04 00:12:37;;;;;;;11.95;7.60;;;;;;;11.46;25.39;101539.47;5009048;28;20038;-83
2022/03/04 00:15:04;;;;;;;11.90;7.35;;;;;;;11.43;25.28;101546.00;5000931;28;20053;-83
2022/03/04 00:17:31;;;;;;;10.73;7.03;;;;;;;11.38;25.46;101537.22;5015586;28;20073;-83
2022/03/04 00:19:59;;;;;;;12.00;7.75;;;;;;;11.35;25.30;101540.16;5004524;28;20050;-83
2022/03/04 00:22:25;;;;;;;11.68;7.60;;;;;;;11.33;25.28;101552.06;5029395;28;20420;-83
2022/03/04 00:24:52;;;;;;;10.50;7.32;;;;;;;11.30;25.39;101542.25;4990304;28;20084;-82
2022/03/04 00:27:19;;;;;;;12.05;8.02;;;;;;;11.28;25.44;101552.31;4999913;28;20088;-81
2022/03/04 00:29:45;;;;;;;11.07;7.85;;;;;;;11.27;25.72;101552.44;4990426;28;20049;-82
2022/03/04 00:32:12;;;;;;;11.40;7.53;;;;;;;11.21;25.71;101556.38;5015453;28;20054;-82
2022/03/04 00:34:39;;;;;;;11.38;7.30;;;;;;;11.19;25.69;101555.59;4997466;28;20113;-82
2022/03/04 00:37:08;;;;;;;12.07;7.70;;;;;;;11.14;25.70;101554.97;4998495;28;20053;-84
2022/03/04 00:39:34;;;;;;;13.90;8.27;;;;;;;11.12;25.70;101558.78;4997310;28;20045;-82
2022/03/04 00:42:01;;;;;;;10.63;7.43;;;;;;;11.09;25.63;101559.81;4994414;28;20053;-83
2022/03/04 00:44:28;;;;;;;12.25;8.30;;;;;;;11.05;25.82;101569.09;5000658;28;20075;-82
2022/03/04 00:46:55;;;;;;;12.70;8.75;;;;;;;11.00;25.93;101565.78;4997698;28;20520;-82
2022/03/04 00:49:21;;;;;;;12.57;8.48;;;;;;;10.94;25.87;101567.00;4996008;28;20105;-81
2022/03/04 00:51:48;;;;;;;12.93;7.85;;;;;;;10.93;25.95;101575.25;5001859;28;20045;-83
2022/03/04 00:54:15;;;;;;;12.93;8.15;;;;;;;10.87;25.69;101567.44;5023984;28;20132;-81
2022/03/04 00:56:42;;;;;;;13.57;8.88;;;;;;;10.84;25.68;101578.47;5000706;28;20460;-82
2022/03/04 00:59:08;;;;;;;14.18;8.43;;;;;;;10.81;25.80;101570.47;4995959;28;20049;-83
2022/03/04 01:01:35;;;;;;;12.30;8.05;;;;;;;10.75;25.99;101569.00;4997781;28;20125;-83
2022/03/04 01:04:02;;;;;;;12.80;7.97;;;;;;;10.77;25.76;101577.06;4995393;28;20049;-82
2022/03/04 01:06:29;;;;;;;13.02;8.57;;;;;;;10.71;26.11;101572.00;5020783;28;20022;-83
2022/03/04 01:08:56;;;;;;;15.75;10.15;;;;;;;10.71;26.01;101577.41;5015938;28;20077;-82
2022/03/04 01:11:22;;;;;;;15.98;10.07;;;;;;;10.66;26.05;101577.66;5010893;28;20084;-83
2022/03/04 01:13:49;;;;;;;17.08;10.80;;;;;;;10.66;26.26;101575.81;4997184;28;20088;-83
2022/03/04 01:16:15;;;;;;;14.55;9.60;;;;;;;10.63;26.12;101575.09;4994646;28;20049;-83
2022/03/04 01:18:42;;;;;;;14.27;9.30;;;;;;;10.63;26.19;101578.69;4998551;28;20052;-83
2022/03/04 01:21:09;;;;;;;13.68;8.90;;;;;;;10.60;25.98;101583.44;5000284;28;20042;-82
2022/03/04 01:23:36;;;;;;;14.80;9.77;;;;;;;10.59;26.13;101585.28;4978063;28;20493;-83
2022/03/04 01:26:03;;;;;;;12.30;8.40;;;;;;;10.58;26.35;101588.94;4994938;28;20065;-82
2022/03/04 01:28:30;;;;;;;14.00;8.93;;;;;;;10.56;26.30;101584.56;4994964;28;20053;-83
2022/03/04 01:30:57;;;;;;;12.35;8.73;;;;;;;10.52;26.67;101574.84;4990446;28;20477;-83
2022/03/04 01:33:24;;;;;;;13.63;8.80;;;;;;;10.50;26.74;101571.31;5000377;28;20475;-83
2022/03/04 01:35:51;;;;;;;14.13;9.20;;;;;;;10.49;26.47;101573.16;4999566;28;20115;-83
2022/03/04 01:38:17;;;;;;;14.43;9.57;;;;;;;10.47;26.61;101579.63;5001167;28;20089;-83
2022/03/04 01:40:44;;;;;;;15.30;8.85;;;;;;;10.45;26.76;101571.59;5002025;28;20081;-84
2022/03/04 01:43:11;;;;;;;12.57;8.82;;;;;;;10.42;26.64;101568.16;4993857;28;20054;-83
2022/03/04 01:45:37;;;;;;;13.18;9.48;;;;;;;10.35;26.63;101564.03;5000667;28;20046;-83
2022/03/04 01:48:04;;;;;;;16.08;9.50;;;;;;;10.34;26.84;101565.88;4995667;28;20084;-83
2022/03/04 01:50:31;;;;;;;15.32;9.18;;;;;;;10.30;26.78;101566.97;5023609;28;20053;-83
2022/03/04 01:52:59;;;;;;;15.00;9.10;;;;;;;10.27;27.24;101573.47;5002333;28;20069;-83
2022/03/04 01:55:25;;;;;;;15.30;9.48;;;;;;;10.22;26.98;101564.69;5030819;28;20137;-83
2022/03/04 01:57:52;;;;;;;14.35;9.45;;;;;;;10.17;26.83;101555.00;4993707;28;20049;-84
2022/03/04 02:00:19;;;;;;;14.02;9.90;;;;;;;10.16;26.86;101564.97;5010151;28;20116;-83
2022/03/04 02:02:46;;;;;;;14.05;8.93;;;;;;;10.12;26.84;101559.81;4998151;28;20045;-83
2022/03/04 02:05:17;;;;;;;14.23;9.48;;;;;;;10.12;27.24;101562.53;5006841;28;20056;-83
2022/03/04 02:07:44;;;;;;;15.98;9.52;;;;;;;10.07;27.12;101562.75;5000192;28;20109;-83
2022/03/04 02:10:11;;;;;;;13.63;8.95;;;;;;;10.08;27.26;101571.78;4998470;28;20049;-83
2022/03/04 02:12:38;;;;;;;14.52;9.02;;;;;;;10.05;27.23;101572.81;4999380;28;20407;-83
2022/03/04 02:15:07;;;;;;;14.90;9.07;;;;;;;10.03;27.20;101572.03;5000046;28;20126;-82
2022/03/04 02:17:35;;;;;;;13.98;8.48;;;;;;;9.99;27.40;101561.41;5017190;28;20477;-83
2022/03/04 02:20:04;;;;;;;13.18;8.57;;;;;;;9.98;27.15;101571.38;5003758;28;20432;-83
2022/03/04 02:22:31;;;;;;;15.38;8.88;;;;;;;9.98;26.99;101578.66;5001595;28;20050;-82
2022/03/04 02:24:58;;;;;;;15.40;9.48;;;;;;;9.94;27.45;101575.25;4997662;28;20501;-84
2022/03/04 02:27:25;;;;;;;14.48;9.13;;;;;;;9.90;27.30;101566.38;5007872;28;20045;-84
2022/03/04 02:29:51;;;;;;;15.23;9.23;;;;;;;9.89;27.16;101567.31;5006018;28;20078;-84
2022/03/04 02:32:18;;;;;;;14.25;8.57;;;;;;;9.90;27.39;101571.78;5001627;28;20068;-84
2022/03/04 02:34:46;;;;;;;14.10;8.60;;;;;;;9.88;27.30;101567.44;4998168;28;20586;-84
2022/03/04 02:37:14;;;;;;;15.68;8.93;;;;;;;9.87;27.37;101569.25;5006999;28;20540;-84
2022/03/04 02:39:40;;;;;;;13.68;9.23;;;;;;;9.84;27.50;101560.41;5008334;28;20065;-83
2022/03/04 02:42:07;;;;;;;16.10;9.95;;;;;;;9.83;27.53;101567.66;5017942;28;20042;-82
2022/03/04 02:44:34;;;;;;;15.55;9.88;;;;;;;9.78;27.39;101556.19;5017951;28;20062;-84
2022/03/04 02:47:00;;;;;;;16.30;9.65;;;;;;;9.78;27.79;101564.31;5000848;28;20481;-84
2022/03/04 02:49:27;;;;;;;14.32;9.10;;;;;;;9.74;27.46;101553.69;5000692;28;20080;-84
2022/03/04 02:51:54;;;;;;;12.75;8.63;;;;;;;9.72;27.47;101559.19;5001608;28;20480;-83
2022/03/04 02:54:21;;;;;;;15.00;9.25;;;;;;;9.71;27.45;101554.75;5020312;28;20050;-83
2022/03/04 02:56:47;;;;;;;14.60;9.35;;;;;;;9.71;27.39;101562.00;5006358;28;20084;-83
2022/03/04 02:59:14;;;;;;;14.15;9.13;;;;;;;9.69;27.55;101558.50;5007043;28;20072;-83
2022/03/04 03:01:41;;;;;;;15.00;9.25;;;;;;;9.65;27.46;101549.63;4991477;28;20084;-83
2022/03/04 03:04:08;;;;;;;15.35;9.38;;;;;;;9.66;27.58;101553.22;5015648;28;20042;-83
2022/03/04 03:06:35;;;;;;;13.95;8.60;;;;;;;9.63;27.71;101553.41;4999802;28;20069;-83
2022/03/04 03:09:01;;;;;;;14.77;9.13;;;;;;;9.59;27.78;101555.38;5001351;28;20062;-83
2022/03/04 03:11:28;;;;;;;14.77;9.20;;;;;;;9.54;27.66;101550.22;5002619;28;20382;-84
2022/03/04 03:13:55;;;;;;;14.23;9.77;;;;;;;9.51;27.90;101546.75;5019430;28;20046;-84
2022/03/04 03:16:21;;;;;;;15.40;9.77;;;;;;;9.51;27.86;101558.47;5009306;28;20068;-83
2022/03/04 03:18:48;;;;;;;14.45;9.05;;;;;;;9.45;27.74;101553.38;5008544;28;20056;-83
2022/03/04 03:21:14;;;;;;;15.13;9.63;;;;;;;9.46;27.95;101556.97;5002269;28;20078;-83
2022/03/04 03:23:42;;;;;;;14.70;9.20;;;;;;;9.44;27.95;101550.75;5015995;28;20054;-83
2022/03/04 03:26:09;;;;;;;16.65;9.35;;;;;;;9.43;28.04;101552.56;5004934;28;20049;-84
2022/03/04 03:28:36;;;;;;;16.20;9.70;;;;;;;9.43;28.11;101554.41;4993364;28;20046;-84
2022/03/04 03:31:03;;;;;;;15.30;9.52;;;;;;;9.41;28.23;101553.59;5002074;28;20088;-83
2022/03/04 03:33:30;;;;;;;15.45;9.68;;;;;;;9.40;28.23;101554.56;5007546;28;20057;-84
2022/03/04 03:35:57;;;;;;;15.13;9.07;;;;;;;9.39;28.23;101550.09;5001642;28;20112;-84
2022/03/04 03:38:24;;;;;;;15.90;9.95;;;;;;;9.39;28.07;101552.78;5018318;28;20065;-83
2022/03/04 03:40:51;;;;;;;14.10;9.50;;;;;;;9.38;28.01;101557.38;5010783;28;20050;-83
2022/03/04 03:43:39;;;;;;;14.77;9.52;;;;;;;9.33;28.29;101547.69;5007696;28;20049;-83
2022/03/04 03:46:06;;;;;;;15.57;9.57;;;;;;;9.30;28.32;101546.03;5011094;28;20065;-83
2022/03/04 03:48:33;;;;;;;14.98;10.00;;;;;;;9.30;28.30;101545.16;5013781;28;20056;-84
2022/03/04 03:51:00;;;;;;;17.25;9.88;;;;;;;9.31;27.96;101552.31;5012227;28;20085;-83
2022/03/04 03:53:27;;;;;;;16.58;10.27;;;;;;;9.28;27.74;101549.78;5006060;28;20052;-83
2022/03/04 03:55:54;;;;;;;15.35;10.02;;;;;;;9.26;28.12;101551.66;5020635;28;20050;-82
2022/03/04 03:58:20;;;;;;;16.90;9.75;;;;;;;9.27;28.45;101554.31;5022547;28;20041;-82
2022/03/04 04:03:15;;;;;;;15.57;9.55;;;;;;;9.28;28.23;101569.63;4962342;28;20578;-69
2022/03/04 04:05:42;;;;;;;15.55;9.52;;;;;;;9.28;28.39;101569.63;4968136;28;20070;-70
2022/03/04 04:08:08;;;;;;;15.65;9.27;;;;;;;9.27;28.29;101573.28;4972696;28;20121;-69
2022/03/04 04:10:35;;;;;;;15.43;9.75;;;;;;;9.27;28.16;101576.00;4968239;28;20172;-69
2022/03/04 04:13:01;;;;;;;13.70;9.27;;;;;;;9.26;28.19;101584.19;4977018;28;20112;-70
2022/03/04 04:15:28;;;;;;;15.27;9.63;;;;;;;9.26;28.36;101578.75;4972777;28;20066;-70
2022/03/04 04:17:55;;;;;;;15.32;9.77;;;;;;;9.25;28.36;101583.31;4969561;28;20043;-69
2022/03/04 04:20:21;;;;;;;14.85;9.80;;;;;;;9.26;28.43;101586.91;4973664;28;20050;-70
2022/03/04 04:22:47;;;;;;;15.60;9.90;;;;;;;9.24;28.42;101586.09;4985654;28;20579;-70
2022/03/04 04:25:14;;;;;;;15.13;9.15;;;;;;;9.22;28.49;101583.47;4970387;28;20085;-69
2022/03/04 04:27:41;;;;;;;13.82;9.13;;;;;;;9.21;28.31;101584.44;4988136;28;20574;-69
2022/03/04 04:30:08;;;;;;;14.20;8.77;;;;;;;9.19;28.68;101585.44;4980466;28;20482;-69
2022/03/04 04:32:35;;;;;;;15.30;9.07;;;;;;;9.16;28.52;101581.94;4976784;28;20050;-70
2022/03/04 04:35:01;;;;;;;16.55;9.57;;;;;;;9.14;28.38;101582.97;4971723;28;20153;-69
2022/03/04 04:37:28;;;;;;;14.77;9.05;;;;;;;9.12;28.63;101583.06;4967735;28;20479;-69
2022/03/04 04:39:54;;;;;;;13.93;9.15;;;;;;;9.10;28.57;101581.34;4980947;28;20158;-69
2022/03/04 04:42:21;;;;;;;14.05;8.55;;;;;;;9.08;28.68;101584.13;4957872;28;20050;-69
2022/03/04 04:44:47;;;;;;;13.32;8.98;;;;;;;9.06;28.40;101588.75;4969742;28;20484;-70
2022/03/04 04:47:14;;;;;;;14.85;8.77;;;;;;;9.03;28.46;101588.91;4969792;28;20130;-69
2022/03/04 04:49:41;;;;;;;13.13;8.82;;;;;;;9.02;28.71;101587.16;4975446;28;20133;-68
2022/03/04 04:52:07;;;;;;;14.30;8.50;;;;;;;9.00;28.65;101593.59;4955178;28;20046;-70
2022/03/04 04:54:35;;;;;;;15.20;8.60;;;;;;;8.97;28.58;101600.06;4974260;28;20696;-69
2022/03/04 04:57:04;;;;;;;13.43;9.02;;;;;;;8.95;28.75;101599.25;4954519;28;20050;-70
2022/03/04 04:59:31;;;;;;;14.93;8.65;;;;;;;8.94;28.88;101602.03;4973791;28;20085;-70
2022/03/04 05:01:57;;;;;;;14.88;8.70;;;;;;;8.91;28.69;101602.16;4972996;28;20184;-70
2022/03/04 05:04:25;;;;;;;15.05;9.43;;;;;;;8.88;28.85;101595.06;4969447;28;20046;-70
2022/03/04 05:06:51;;;;;;;16.83;9.80;;;;;;;8.86;29.08;101601.50;4967959;28;20077;-73
2022/03/04 05:09:18;;;;;;;15.25;9.15;;;;;;;8.82;28.83;101600.75;4972718;28;20137;-69
2022/03/04 05:11:44;;;;;;;13.70;9.02;;;;;;;8.78;28.97;101597.34;4970142;28;20085;-72
2022/03/04 05:14:11;;;;;;;16.67;9.88;;;;;;;8.77;28.93;101603.69;4971186;28;20085;-68
2022/03/04 05:16:37;;;;;;;14.25;9.23;;;;;;;8.73;28.97;101601.19;4951633;28;20057;-69
2022/03/04 05:19:04;;;;;;;15.70;9.45;;;;;;;8.70;28.95;101604.94;4963168;28;20069;-68
2022/03/04 05:21:31;;;;;;;14.23;8.93;;;;;;;8.66;29.18;101606.03;4967656;28;20058;-68
2022/03/04 05:23:58;;;;;;;15.18;9.20;;;;;;;8.62;28.92;101612.56;4952122;28;20082;-69
2022/03/04 05:26:30;;;;;;;13.98;8.65;;;;;;;8.60;29.82;101614.44;4967687;28;20047;-69
2022/03/04 05:28:59;;;;;;;13.80;8.57;;;;;;;8.57;29.29;101621.81;4967832;28;20134;-68
2022/03/04 05:31:27;;;;;;;14.15;9.60;;;;;;;8.54;29.44;101612.03;4968061;28;20074;-68
2022/03/04 05:33:54;;;;;;;15.43;9.15;;;;;;;8.51;29.21;101622.09;4966973;28;20057;-68
2022/03/04 05:36:21;;;;;;;14.18;9.23;;;;;;;8.48;29.39;101623.16;4963181;28;20134;-68
2022/03/04 05:38:48;;;;;;;17.30;9.35;;;;;;;8.46;29.58;101622.34;4966983;28;20158;-68
2022/03/04 05:41:18;;;;;;;14.70;9.25;;;;;;;8.45;29.61;101625.09;4969152;28;20469;-69
2022/03/04 05:43:47;;;;;;;15.05;9.32;;;;;;;8.40;29.37;101625.28;4970334;28;20047;-68
2022/03/04 05:46:14;;;;;;;16.60;10.15;;;;;;;8.34;29.63;101629.16;4971796;28;20105;-69
2022/03/04 05:48:41;;;;;;;14.65;9.00;;;;;;;8.31;29.75;101633.84;4968705;28;20070;-69
2022/03/04 05:51:08;;;;;;;15.27;9.50;;;;;;;8.26;29.43;101631.31;4967910;28;20145;-69
2022/03/04 05:53:35;;;;;;;16.15;9.65;;;;;;;8.22;29.70;101637.81;4966054;28;20438;-68
2022/03/04 05:56:05;;;;;;;14.27;9.32;;;;;;;8.21;29.99;101636.06;4965873;28;20586;-67
2022/03/04 05:58:32;;;;;;;13.60;8.98;;;;;;;8.16;29.61;101640.78;4949085;28;20054;-68
2022/03/04 06:00:59;;;;;;;15.80;9.32;;;;;;;8.14;29.82;101644.50;4965637;28;20061;-69
2022/03/04 06:03:26;;;;;;;16.50;9.88;;;;;;;8.13;29.64;101642.75;4971184;28;20063;-68
2022/03/04 06:05:53;;;;;;;17.48;9.65;;;;;;;8.10;29.83;101645.56;4966773;28;20074;-68
2022/03/04 06:08:20;;;;;;;17.50;9.68;;;;;;;8.08;29.84;101642.06;4964764;28;20133;-69
2022/03/04 06:10:47;;;;;;;16.95;9.75;;;;;;;8.06;29.88;101646.69;4967938;28;20051;-69
2022/03/04 06:13:13;;;;;;;16.52;10.75;;;;;;;8.05;29.81;101648.50;4951124;28;20050;-69
2022/03/04 06:15:40;;;;;;;16.75;10.35;;;;;;;8.03;30.16;101640.44;4969961;28;21117;-68
2022/03/04 06:18:07;;;;;;;16.17;9.90;;;;;;;8.02;29.95;101644.09;4973409;28;20054;-69
2022/03/04 06:20:33;;;;;;;17.75;10.70;;;;;;;8.02;30.33;101645.91;4979309;28;20073;-69
2022/03/04 06:23:00;;;;;;;18.23;10.82;;;;;;;7.99;30.09;101644.22;4980749;28;20130;-69
2022/03/04 06:25:27;;;;;;;16.77;10.40;;;;;;;7.99;29.98;101655.03;4972219;28;20162;-69
2022/03/04 06:27:55;;;;;;;15.25;10.57;;;;;;;7.97;30.19;101656.06;4977242;28;20042;-69
2022/03/04 06:30:22;;;;;;;17.05;11.13;;;;;;;7.92;30.45;101656.25;4977974;28;20467;-69
2022/03/04 06:32:49;;;;;;;17.77;10.80;;;;;;;7.90;30.18;101659.97;4954505;28;20069;-68
2022/03/04 06:35:16;;;;;;;17.48;11.13;;;;;;;7.87;30.33;101660.09;4978868;28;20051;-69
2022/03/04 06:37:43;;;;;;;18.40;10.77;;;;;;;7.86;30.39;101670.03;4979447;28;20121;-69
2022/03/04 06:40:10;;;;;;;19.52;11.13;;;;;;;7.83;30.28;101670.16;4978501;28;20475;-68
2022/03/04 06:42:37;;;;;;;18.02;10.73;;;;;;;7.83;30.61;101664.75;4981390;28;20480;-68
2022/03/04 06:45:04;;;;;;;16.75;10.07;;;;;;;7.83;30.49;101670.16;4966659;28;20493;-69
2022/03/04 06:47:31;;;;;;;16.08;10.77;;;;;;;7.84;30.42;101671.91;4966066;28;20065;-68
2022/03/04 06:49:57;;;;;;;16.08;10.27;;;;;;;7.85;30.51;101679.09;4957307;28;20053;-69
2022/03/04 06:52:24;;;;;;;16.13;10.48;;;;;;;7.86;30.63;101678.16;4973876;28;20135;-69
2022/03/04 06:54:50;;;;;;;26.83;13.82;;;;;;;7.89;31.14;101675.31;4974919;28;20054;-69
2022/03/04 06:57:17;;;;;;;21.70;12.35;;;;;;;7.96;31.64;101686.75;4976144;28;20142;-69
2022/03/04 06:59:43;;;;;;;18.38;11.35;;;;;;;8.05;32.01;101693.59;4969552;28;20171;-69
2022/03/04 07:02:12;;;;;;;17.75;10.52;;;;;;;8.18;32.46;101694.81;4969361;28;20344;-70
2022/03/04 07:04:39;;;;;;;15.63;10.38;;;;;;;8.36;32.64;101694.03;4947153;28;20043;-70
2022/03/04 07:07:05;;;;;;;16.98;10.45;;;;;;;8.56;32.80;101694.03;4973111;28;20089;-69
2022/03/04 07:09:32;;;;;;;16.85;10.52;;;;;;;8.80;32.81;101704.69;4981319;28;20063;-69
2022/03/04 07:11:58;;;;;;;17.92;10.52;;;;;;;9.03;32.94;101693.66;4980201;28;20046;-69
2022/03/04 07:14:27;;;;;;;19.63;10.13;;;;;;;9.30;32.93;101699.63;4974715;28;20078;-70
2022/03/04 07:16:54;;;;;;;20.05;10.45;;;;;;;9.57;32.90;101698.25;4976304;28;20075;-69
2022/03/04 07:19:20;;;;;;;17.23;10.20;;;;;;;9.82;32.71;101696.06;4974154;28;20150;-70
2022/03/04 07:21:47;;;;;;;14.88;10.23;;;;;;;10.08;32.27;101699.31;4981664;28;20050;-69
2022/03/04 07:24:13;;;;;;;14.95;9.35;;;;;;;10.31;32.34;101699.00;4972510;28;20130;-69
2022/03/04 07:26:40;;;;;;;17.05;9.60;;;;;;;10.54;32.08;101704.09;4952001;28;20157;-69
2022/03/04 07:29:06;;;;;;;14.27;9.10;;;;;;;10.78;32.10;101715.53;4975417;28;20055;-70
2022/03/04 07:31:33;;;;;;;17.52;9.48;;;;;;;11.00;31.79;101710.66;4953237;28;20047;-68
2022/03/04 07:33:59;;;;;;;15.45;9.82;;;;;;;11.19;31.62;101710.53;4962014;28;20680;-71
2022/03/04 07:36:26;;;;;;;15.05;9.77;;;;;;;11.39;31.08;101704.84;4973448;28;20059;-69
2022/03/04 07:38:55;;;;;;;16.50;9.38;;;;;;;11.57;30.75;101711.06;4971434;28;20043;-69
2022/03/04 07:41:21;;;;;;;15.70;10.40;;;;;;;11.74;30.73;101697.41;4987127;28;20105;-71
2022/03/04 07:43:48;;;;;;;17.33;9.73;;;;;;;11.90;30.36;101711.00;4969376;28;20134;-70
2022/03/04 07:46:14;;;;;;;15.43;9.45;;;;;;;12.05;30.05;101714.63;4962656;28;20055;-68
2022/03/04 07:48:41;;;;;;;15.55;9.85;;;;;;;12.17;29.85;101713.94;4959185;28;20063;-69
2022/03/04 07:51:08;;;;;;;14.68;9.55;;;;;;;12.29;29.47;101715.00;4975258;28;20126;-71
2022/03/04 07:53:34;;;;;;;22.23;10.60;;;;;;;12.38;29.25;101709.91;4968648;28;20144;-70
2022/03/04 07:56:01;;;;;;;20.65;10.23;;;;;;;12.48;29.09;101711.09;4963855;28;20142;-68
2022/03/04 07:58:27;;;;;;;14.02;8.38;;;;;;;12.58;29.04;101715.00;4986734;28;20058;-69
2022/03/04 08:00:54;;;;;;;13.98;9.20;;;;;;;12.68;28.86;101722.63;4984914;28;20054;-71
2022/03/04 08:03:42;;;;;;;14.60;9.35;;;;;;;12.78;28.89;101721.06;4969564;28;20047;-70
2022/03/04 08:06:09;;;;;;;13.40;8.48;;;;;;;12.91;28.45;101719.34;4986514;28;20050;-70
2022/03/04 08:08:36;;;;;;;13.57;9.52;;;;;;;13.00;28.00;101724.22;4984560;28;20078;-69
2022/03/04 08:11:03;;;;;;;14.05;9.27;;;;;;;13.06;27.93;101723.81;4984960;28;20081;-70
2022/03/04 08:13:30;;;;;;;13.27;9.40;;;;;;;13.12;27.67;101728.88;4977903;28;20063;-69
2022/03/04 08:15:57;;;;;;;14.95;9.68;;;;;;;13.15;27.50;101719.66;4982937;28;20488;-69
2022/03/04 08:18:24;;;;;;;14.75;9.48;;;;;;;13.15;27.20;101727.84;4976317;28;20487;-69
2022/03/04 08:20:51;;;;;;;15.07;9.85;;;;;;;13.15;26.82;101734.16;4987778;28;20141;-68
2022/03/04 08:23:18;;;;;;;16.13;9.98;;;;;;;13.14;26.68;101723.34;4988439;28;20050;-70
2022/03/04 08:25:44;;;;;;;13.57;9.15;;;;;;;13.09;26.98;101731.81;4969354;28;20043;-69
2022/03/04 08:28:11;;;;;;;15.45;9.70;;;;;;;13.05;26.85;101732.09;4976823;28;20156;-69
2022/03/04 08:30:38;;;;;;;15.57;9.77;;;;;;;13.00;26.69;101728.78;4985724;28;20047;-69
2022/03/04 08:33:05;;;;;;;13.10;9.18;;;;;;;12.98;26.79;101730.72;4987985;28;20049;-68
2022/03/04 08:35:31;;;;;;;16.00;9.75;;;;;;;12.96;27.08;101734.41;4986563;28;20054;-68
2022/03/04 08:38:00;;;;;;;15.48;9.68;;;;;;;12.94;26.75;101722.72;4987691;28;20134;-69
2022/03/04 08:40:26;;;;;;;18.50;9.90;;;;;;;12.94;26.86;101722.72;4973436;28;20078;-70
2022/03/04 08:42:53;;;;;;;15.40;10.00;;;;;;;12.93;26.74;101725.53;4988242;28;20054;-69
2022/03/04 08:45:20;;;;;;;15.55;9.73;;;;;;;12.92;26.75;101727.41;4977202;28;20061;-70
2022/03/04 08:47:47;;;;;;;15.48;9.88;;;;;;;12.89;26.74;101733.06;4984389;28;20054;-69
2022/03/04 08:50:15;;;;;;;15.52;10.30;;;;;;;12.90;26.80;101731.22;4979358;28;20058;-68
2022/03/04 08:52:42;;;;;;;15.85;10.65;;;;;;;12.89;26.81;101732.19;4987111;28;20450;-69
2022/03/04 08:55:14;;;;;;;15.48;10.05;;;;;;;12.91;26.96;101727.50;4984797;28;20119;-70
2022/03/04 08:57:43;;;;;;;15.93;10.50;;;;;;;12.94;26.99;101747.25;4987978;28;20054;-69
2022/03/04 09:00:10;;;;;;;16.27;10.50;;;;;;;12.99;26.77;101740.66;4948641;28;20128;-69
2022/03/04 09:02:37;;;;;;;14.98;10.43;;;;;;;13.01;27.04;101734.16;4975750;28;20077;-70
2022/03/04 09:05:05;;;;;;;15.32;10.00;;;;;;;13.04;26.95;101736.66;4970316;28;20101;-69
2022/03/04 09:07:33;;;;;;;18.92;11.90;;;;;;;13.08;26.80;101737.34;4972802;28;20526;-71
2022/03/04 09:10:00;;;;;;;19.95;11.90;;;;;;;13.10;26.66;101730.81;4970012;28;20578;-69
2022/03/04 09:12:26;;;;;;;18.15;12.10;;;;;;;13.11;26.67;101731.69;4941517;28;20042;-69
2022/03/04 09:14:53;;;;;;;15.02;11.15;;;;;;;13.14;26.71;101732.41;4966422;28;20043;-69
2022/03/04 09:17:19;;;;;;;17.90;12.07;;;;;;;13.14;26.44;101735.16;4969049;28;20070;-69
2022/03/04 09:19:46;;;;;;;18.30;12.15;;;;;;;13.16;26.50;101735.06;4972672;28;20137;-69
2022/03/04 09:22:24;;;;;;;18.83;11.60;;;;;;;13.17;26.46;101736.81;4970460;28;20047;-70
2022/03/04 09:24:51;;;;;;;19.08;11.07;;;;;;;13.18;26.53;101739.41;4965087;28;20126;-69
2022/03/04 09:27:18;;;;;;;13.85;9.85;;;;;;;13.20;26.79;101734.75;4960402;28;20058;-70
2022/03/04 09:29:45;;;;;;;15.25;10.95;;;;;;;13.26;26.84;101736.19;4969344;28;20085;-73
2022/03/04 09:32:12;;;;;;;18.63;11.32;;;;;;;13.29;26.75;101741.47;4966527;28;20072;-73
2022/03/04 09:34:39;;;;;;;17.95;11.85;;;;;;;13.34;26.61;101734.72;4969741;28;20221;-72
2022/03/04 09:37:06;;;;;;;19.50;12.07;;;;;;;13.38;26.37;101729.97;4950240;28;20253;-72
2022/03/04 09:39:32;;;;;;;17.27;11.23;;;;;;;13.42;26.71;101722.47;4969368;28;20472;-72
2022/03/04 09:41:59;;;;;;;16.70;11.55;;;;;;;13.47;26.66;101728.50;4972979;28;20058;-72
2022/03/04 09:44:25;;;;;;;16.92;11.55;;;;;;;13.53;26.60;101734.41;4978049;28;20050;-73
2022/03/04 09:46:53;;;;;;;17.95;12.05;;;;;;;13.61;26.38;101731.19;4966988;28;20057;-72
2022/03/04 09:49:27;;;;;;;17.40;11.25;;;;;;;13.68;26.19;101729.81;4972253;28;20058;-73
2022/03/04 09:51:54;;;;;;;18.55;11.50;;;;;;;13.70;26.56;101728.72;4979260;28;20051;-72
2022/03/04 09:54:20;;;;;;;16.80;11.27;;;;;;;13.79;26.53;101732.72;4974958;28;20146;-72
2022/03/04 09:56:47;;;;;;;15.68;11.05;;;;;;;13.87;26.61;101738.53;4975454;28;20077;-73
2022/03/04 09:59:13;;;;;;;18.05;11.60;;;;;;;13.95;26.59;101735.28;4976373;28;20137;-72
2022/03/04 10:01:41;;;;;;;18.05;11.75;;;;;;;14.05;26.79;101731.84;5016895;23;20697;-84
2022/03/04 10:04:07;;;;;;;15.60;10.88;;;;;;;14.16;26.85;101730.25;5032825;28;20578;-83
2022/03/04 10:06:40;;;;;;;16.65;11.27;;;;;;;14.29;26.49;101733.88;5038231;28;20569;-82
2022/03/04 10:09:10;;;;;;;16.92;11.43;;;;;;;14.38;26.71;101730.53;5037193;28;20050;-82
2022/03/04 10:11:44;;;;;;;16.80;11.30;;;;;;;14.49;26.49;101722.50;5043535;28;20045;-83
2022/03/04 10:14:13;;;;;;;17.45;11.23;;;;;;;14.59;26.38;101723.59;5005709;28;20052;-83
2022/03/04 10:16:42;;;;;;;16.17;10.80;;;;;;;14.71;26.50;101725.47;5039898;28;20090;-84
2022/03/04 10:19:13;;;;;;;19.10;12.60;;;;;;;14.83;26.02;101729.19;5055216;28;20049;-83
2022/03/04 10:22:05;;;;;;;18.75;11.30;;;;;;;14.91;25.95;101717.72;5039209;28;20077;-83
2022/03/04 10:24:35;;;;;;;16.60;11.27;;;;;;;15.02;25.97;101726.03;5051283;28;20099;-84
2022/03/04 10:27:16;;;;;;;17.42;11.40;;;;;;;15.13;25.83;101721.56;5076805;28;20037;-82
2022/03/04 10:29:48;;;;;;;17.95;12.20;;;;;;;15.18;25.49;101727.56;5047867;28;20526;-83
2022/03/04 10:32:19;;;;;;;17.02;11.68;;;;;;;15.26;25.26;101723.38;5048050;28;20053;-84
2022/03/04 10:34:54;;;;;;;16.67;12.07;;;;;;;15.28;24.77;101724.16;5074770;28;20037;-84
2022/03/04 10:37:23;;;;;;;20.60;13.13;;;;;;;15.30;25.07;101722.19;5048513;28;20583;-83
2022/03/04 10:39:57;;;;;;;15.88;11.93;;;;;;;15.34;24.26;101719.09;5043692;28;20049;-84
2022/03/04 10:42:37;;;;;;;17.58;12.15;;;;;;;15.34;24.36;101710.03;5056609;28;20045;-85
2022/03/04 10:45:07;;;;;;;17.75;11.43;;;;;;;15.34;25.33;101710.91;5061924;28;20048;-83
2022/03/04 10:47:51;;;;;;;17.70;12.02;;;;;;;15.39;24.67;101705.97;5054664;28;20112;-83
2022/03/04 10:50:26;;;;;;;17.05;11.32;;;;;;;15.43;24.70;101703.88;5040889;28;20045;-85
2022/03/04 10:52:54;;;;;;;16.38;10.80;;;;;;;15.46;24.89;101699.06;5060667;28;20087;-83
2022/03/04 10:55:46;;;;;;;17.75;12.07;;;;;;;15.51;23.96;101702.31;5043725;28;20126;-85
2022/03/04 10:58:55;;;;;;;16.65;11.00;;;;;;;15.59;24.47;101699.94;5034009;28;20048;-84
2022/03/04 11:01:48;;;;;;;14.23;10.20;;;;;;;15.62;24.99;101698.84;4980740;28;20042;-85
2022/03/04 11:04:20;;;;;;;14.60;10.60;;;;;;;15.70;25.12;101699.13;4962585;28;20520;-85
2022/03/04 11:06:50;;;;;;;17.33;11.88;;;;;;;15.77;25.10;101707.75;4964903;28;20054;-85
2022/03/04 11:09:24;;;;;;;16.45;11.10;;;;;;;15.85;24.78;101702.56;4971523;28;20143;-84
2022/03/04 11:11:53;;;;;;;19.92;11.48;;;;;;;15.92;24.64;101706.59;4981977;28;20396;-84
2022/03/04 11:14:21;;;;;;;17.98;11.75;;;;;;;15.96;24.47;101703.53;4964120;28;20043;-85
2022/03/04 11:16:50;;;;;;;18.25;12.63;;;;;;;16.00;24.34;101701.41;4967279;28;20042;-85
2022/03/04 11:19:19;;;;;;;17.88;11.32;;;;;;;16.05;24.62;101710.16;4984869;28;20050;-83
2022/03/04 11:21:46;;;;;;;16.48;11.45;;;;;;;16.09;24.31;101706.19;4967396;28;20076;-84